Welcome to Northern Hawkes Bay. New Zealand.
PWS Header
      nz Flag



Hit Counter


W3C Valid W3C Valid logo


    Wairoa

Select any of the Stations below to visit their websites.










Historic Data from Weather Underground
Select the location of interest below. Wairoa is the default. Please have patience, this Data is slow to load in.
Northern Hawkes Bay Historical Data
Daily Summary for July 30, 2017 Units:  Metric    English   Both
« Previous Day
Next Day »
Daily Weekly Monthly Yearly Custom
  High: Low: Average:
Temperature: 12.3 °C 0.9 °C 6.1 °C
Dew Point: 3.8 °C -1.8 °C 1.6 °C
Humidity: 93% 56% 74%
Wind Speed: 19.5km/h 0.0km/h 6.5km/h
Wind Gust: 30.6km/h - -
Wind- - WNW
Pressure: 1029.3 hPa 1024.3 hPa -
Precipitation: 0.0 mm    
Historical Graphs
 
 
Tabular Data for July 30, 2017
Time Temperature Dew Point Pressure Wind Wind Speed Wind Gust Humidity Rainfall Rate (Hourly) solar
00:01 7.3 °C 2.0 °C 1024.3 hPa WSW 13.4 km/h 28.0 km/h 69% 0.0 mm 0 W/m2
00:06 7.2 °C 1.7 °C 1024.3 hPa WSW 14.8 km/h 28.0 km/h 68% 0.0 mm 0 W/m2
00:11 7.2 °C 1.5 °C 1024.3 hPa WSW 15.8 km/h 28.0 km/h 67% 0.0 mm 0 W/m2
00:16 7.3 °C 1.6 °C 1024.3 hPa WSW 9.7 km/h 27.0 km/h 67% 0.0 mm 0 W/m2
00:21 7.2 °C 1.7 °C 1024.3 hPa WSW 15.8 km/h 25.6 km/h 68% 0.0 mm 0 W/m2
00:26 7.3 °C 2.0 °C 1024.6 hPa WSW 13.4 km/h 23.3 km/h 69% 0.0 mm 0 W/m2
00:31 7.3 °C 2.0 °C 1024.3 hPa SW 14.8 km/h 24.5 km/h 69% 0.0 mm 0 W/m2
00:36 7.3 °C 2.0 °C 1024.3 hPa SW 15.8 km/h 30.6 km/h 69% 0.0 mm 0 W/m2
00:41 7.4 °C 1.9 °C 1024.6 hPa SW 18.3 km/h 30.6 km/h 68% 0.0 mm 0 W/m2
00:46 7.5 °C 1.8 °C 1024.6 hPa SW 15.8 km/h 30.6 km/h 67% 0.0 mm 0 W/m2
00:49 7.5 °C 2.0 °C 1024.3 hPa SW 14.8 km/h 30.6 km/h 68% 0.0 mm 0 W/m2
00:54 7.4 °C 1.9 °C 1024.3 hPa WSW 15.8 km/h 27.0 km/h 68% 0.0 mm 0 W/m2
00:59 7.3 °C 2.2 °C 1024.3 hPa WSW 14.8 km/h 27.0 km/h 70% 0.0 mm 0 W/m2
01:04 7.2 °C 2.3 °C 1024.3 hPa West 5.0 km/h 20.9 km/h 71% 0.0 mm 0 W/m2
01:14 7.2 °C 2.1 °C 1024.6 hPa West 13.4 km/h 25.6 km/h 70% 0.0 mm 0 W/m2
01:19 7.1 °C 2.2 °C 1024.6 hPa West 3.5 km/h 19.5 km/h 71% 0.0 mm 0 W/m2
01:24 7.0 °C 2.1 °C 1024.6 hPa West 11.1 km/h 17.2 km/h 71% 0.0 mm 0 W/m2
01:30 6.8 °C 2.1 °C 1024.6 hPa West 6.1 km/h 14.8 km/h 72% 0.0 mm 0 W/m2
01:35 5.7 °C 0.8 °C 1024.9 hPa WNW 5.0 km/h 12.2 km/h 71% 0.0 mm 0 W/m2
01:40 5.2 °C 0.6 °C 1024.9 hPa NW 7.2 km/h 12.2 km/h 72% 0.0 mm 0 W/m2
01:45 5.0 °C 0.8 °C 1024.9 hPa NW 6.1 km/h 12.2 km/h 74% 0.0 mm 0 W/m2
01:50 4.9 °C 0.8 °C 1024.9 hPa NW 6.1 km/h 12.2 km/h 75% 0.0 mm 0 W/m2
01:56 4.9 °C 1.1 °C 1024.9 hPa NW 7.2 km/h 15.8 km/h 76% 0.0 mm 0 W/m2
02:01 4.9 °C 1.1 °C 1024.9 hPa NW 8.7 km/h 14.8 km/h 76% 0.0 mm 0 W/m2
02:06 4.9 °C 0.8 °C 1024.9 hPa NW 6.1 km/h 14.8 km/h 75% 0.0 mm 0 W/m2
02:11 5.0 °C 0.8 °C 1025.3 hPa NW 7.2 km/h 13.4 km/h 74% 0.0 mm 0 W/m2
02:16 5.0 °C 0.8 °C 1025.3 hPa NW 8.7 km/h 13.4 km/h 74% 0.0 mm 0 W/m2
02:21 5.0 °C 0.6 °C 1024.9 hPa NW 7.2 km/h 12.2 km/h 73% 0.0 mm 0 W/m2
02:26 5.1 °C 0.7 °C 1025.3 hPa NW 11.1 km/h 14.8 km/h 73% 0.0 mm 0 W/m2
02:31 5.2 °C 0.6 °C 1024.9 hPa NW 9.7 km/h 14.8 km/h 72% 0.0 mm 0 W/m2
02:36 5.1 °C 0.5 °C 1024.9 hPa NW 8.7 km/h 13.4 km/h 72% 0.0 mm 0 W/m2
02:41 5.1 °C 0.5 °C 1025.3 hPa NW 7.2 km/h 13.4 km/h 72% 0.0 mm 0 W/m2
02:46 5.0 °C 0.6 °C 1025.3 hPa NW 7.2 km/h 13.4 km/h 73% 0.0 mm 0 W/m2
02:51 5.0 °C 0.6 °C 1025.3 hPa NW 8.7 km/h 13.4 km/h 73% 0.0 mm 0 W/m2
02:56 5.0 °C 0.4 °C 1025.3 hPa NW 5.0 km/h 13.4 km/h 72% 0.0 mm 0 W/m2
03:01 5.1 °C 0.5 °C 1025.6 hPa NW 7.2 km/h 13.4 km/h 72% 0.0 mm 0 W/m2
03:06 5.1 °C 0.3 °C 1025.6 hPa NW 12.2 km/h 15.8 km/h 71% 0.0 mm 0 W/m2
03:27 5.0 °C 0.0 °C 1025.6 hPa NW 5.0 km/h 13.4 km/h 70% 0.0 mm 0 W/m2
03:32 4.8 °C 0.2 °C 1025.6 hPa NW 7.2 km/h 13.4 km/h 72% 0.0 mm 0 W/m2
03:37 4.6 °C 0.0 °C 1025.6 hPa NW 6.1 km/h 11.1 km/h 72% 0.0 mm 0 W/m2
03:42 4.3 °C -0.1 °C 1025.6 hPa NW 5.0 km/h 11.1 km/h 73% 0.0 mm 0 W/m2
03:47 4.2 °C -0.2 °C 1025.6 hPa NNW 2.6 km/h 11.1 km/h 73% 0.0 mm 0 W/m2
03:52 4.1 °C -0.1 °C 1025.3 hPa NW 3.5 km/h 9.7 km/h 74% 0.0 mm 0 W/m2
03:57 4.0 °C -0.2 °C 1025.6 hPa NNW 2.6 km/h 8.7 km/h 74% 0.0 mm 0 W/m2
04:02 3.8 °C -0.2 °C 1025.6 hPa NNW 1.1 km/h 6.1 km/h 75% 0.0 mm 0 W/m2
04:07 3.6 °C -0.4 °C 1025.6 hPa Calm   5.0 km/h 75% 0.0 mm 0 W/m2
04:12 3.4 °C -0.6 °C 1025.6 hPa Calm   3.5 km/h 75% 0.0 mm 0 W/m2
04:17 3.0 °C -1.0 °C 1025.6 hPa Calm   3.5 km/h 75% 0.0 mm 0 W/m2
04:22 2.8 °C -1.7 °C 1025.6 hPa North 2.6 km/h 6.1 km/h 72% 0.0 mm 0 W/m2
04:27 2.6 °C -1.7 °C 1025.6 hPa NNW 3.5 km/h 7.2 km/h 73% 0.0 mm 0 W/m2
04:32 2.7 °C -1.4 °C 1025.6 hPa NNW 6.1 km/h 9.7 km/h 74% 0.0 mm 0 W/m2
04:37 2.9 °C -1.1 °C 1026.0 hPa NNW 7.2 km/h 9.7 km/h 75% 0.0 mm 0 W/m2
04:42 3.2 °C -0.1 °C 1025.6 hPa NW 7.2 km/h 11.1 km/h 79% 0.0 mm 0 W/m2
04:47 3.4 °C 0.1 °C 1026.0 hPa NW 6.1 km/h 11.1 km/h 79% 0.0 mm 0 W/m2
04:52 3.5 °C 0.1 °C 1025.6 hPa NW 7.2 km/h 12.2 km/h 78% 0.0 mm 0 W/m2
04:57 3.6 °C -0.1 °C 1025.6 hPa NW 5.0 km/h 12.2 km/h 77% 0.0 mm 0 W/m2
05:02 3.5 °C -0.2 °C 1026.0 hPa NW 6.1 km/h 11.1 km/h 77% 0.0 mm 0 W/m2
05:07 3.5 °C -0.2 °C 1026.0 hPa NW 7.2 km/h 12.2 km/h 77% 0.0 mm 0 W/m2
05:12 3.4 °C -0.2 °C 1026.0 hPa NW 7.2 km/h 12.2 km/h 77% 0.0 mm 0 W/m2
05:17 3.3 °C -0.3 °C 1026.0 hPa NW 6.1 km/h 12.2 km/h 77% 0.0 mm 0 W/m2
05:22 3.3 °C -0.2 °C 1026.0 hPa NW 5.0 km/h 12.2 km/h 78% 0.0 mm 0 W/m2
05:38 3.1 °C -0.3 °C 1026.0 hPa NW 6.1 km/h 8.7 km/h 78% 0.0 mm 0 W/m2
05:43 3.0 °C -0.4 °C 1026.3 hPa NW 5.0 km/h 8.7 km/h 78% 0.0 mm 0 W/m2
05:49 3.0 °C -0.3 °C 1026.3 hPa NW 6.1 km/h 9.7 km/h 79% 0.0 mm 0 W/m2
05:54 3.0 °C -0.3 °C 1026.3 hPa NW 5.0 km/h 12.2 km/h 79% 0.0 mm 0 W/m2
05:59 3.0 °C -0.3 °C 1026.6 hPa NW 7.2 km/h 12.2 km/h 79% 0.0 mm 0 W/m2
06:04 3.1 °C -0.2 °C 1026.6 hPa NW 5.0 km/h 12.2 km/h 79% 0.0 mm 0 W/m2
06:09 3.0 °C -0.3 °C 1026.6 hPa NW 5.0 km/h 11.1 km/h 79% 0.0 mm 0 W/m2
06:14 2.9 °C -1.1 °C 1026.6 hPa NW 5.0 km/h 8.7 km/h 75% 0.0 mm 0 W/m2
06:19 2.8 °C -1.2 °C 1027.0 hPa NNW 5.0 km/h 8.7 km/h 75% 0.0 mm 0 W/m2
06:24 2.4 °C -1.6 °C 1026.6 hPa North 3.5 km/h 9.7 km/h 75% 0.0 mm 0 W/m2
06:29 2.2 °C -1.8 °C 1027.0 hPa North 5.0 km/h 9.7 km/h 75% 0.0 mm 0 W/m2
06:34 2.0 °C -1.8 °C 1027.0 hPa NNW 5.0 km/h 8.7 km/h 76% 0.0 mm 0 W/m2
06:39 1.9 °C -1.5 °C 1027.0 hPa NNW 6.1 km/h 9.7 km/h 78% 0.0 mm 0 W/m2
06:44 1.8 °C -1.4 °C 1027.0 hPa NNW 7.2 km/h 12.2 km/h 79% 0.0 mm 0 W/m2
06:49 1.8 °C -1.4 °C 1027.0 hPa NNW 7.2 km/h 12.2 km/h 79% 0.0 mm 0 W/m2
06:54 1.8 °C -1.3 °C 1027.0 hPa North 5.0 km/h 9.7 km/h 80% 0.0 mm 0 W/m2
06:59 1.7 °C -1.4 °C 1027.0 hPa North 6.1 km/h 8.7 km/h 80% 0.0 mm 0 W/m2
07:04 1.6 °C -1.4 °C 1027.0 hPa NNW 3.5 km/h 8.7 km/h 80% 0.0 mm 0 W/m2
07:09 1.5 °C -1.6 °C 1027.0 hPa NW 3.5 km/h 7.2 km/h 80% 0.0 mm 0 W/m2
07:14 1.3 °C -1.6 °C 1027.0 hPa NNW 3.5 km/h 7.2 km/h 81% 0.0 mm 0 W/m2
07:19 1.2 °C -1.7 °C 1027.0 hPa NNW 3.5 km/h 7.2 km/h 81% 0.0 mm 1 W/m2
07:24 1.0 °C -1.7 °C 1027.0 hPa NNW 3.5 km/h 7.2 km/h 82% 0.0 mm 3 W/m2
07:29 0.9 °C -1.7 °C 1027.3 hPa North 3.5 km/h 7.2 km/h 83% 0.0 mm 5 W/m2
07:34 0.9 °C -1.7 °C 1027.3 hPa NNW 2.6 km/h 7.2 km/h 83% 0.0 mm 12 W/m2
07:39 1.1 °C -1.4 °C 1027.3 hPa North 2.6 km/h 6.1 km/h 83% 0.0 mm 36 W/m2
07:44 1.6 °C -0.9 °C 1027.3 hPa North 2.6 km/h 6.1 km/h 83% 0.0 mm 46 W/m2
07:49 2.0 °C -0.7 °C 1027.7 hPa North 3.5 km/h 7.2 km/h 82% 0.0 mm 58 W/m2
07:54 2.3 °C -0.4 °C 1027.7 hPa NNW 3.5 km/h 7.2 km/h 82% 0.0 mm 67 W/m2
07:59 2.7 °C -0.2 °C 1027.7 hPa NNW 5.0 km/h 8.7 km/h 81% 0.0 mm 78 W/m2
08:04 3.0 °C 0.6 °C 1027.7 hPa NNW 5.0 km/h 8.7 km/h 84% 0.0 mm 88 W/m2
08:09 3.2 °C 0.4 °C 1027.7 hPa NNW 5.0 km/h 8.7 km/h 82% 0.0 mm 98 W/m2
08:14 3.3 °C 0.2 °C 1027.7 hPa NNW 5.0 km/h 8.7 km/h 80% 0.0 mm 107 W/m2
08:19 3.5 °C 0.2 °C 1027.7 hPa NNW 7.2 km/h 12.2 km/h 79% 0.0 mm 117 W/m2
08:24 3.8 °C 0.5 °C 1027.7 hPa NNW 3.5 km/h 12.2 km/h 79% 0.0 mm 125 W/m2
08:29 4.1 °C 0.4 °C 1027.7 hPa North 5.0 km/h 9.7 km/h 77% 0.0 mm 134 W/m2
08:34 4.4 °C 0.6 °C 1027.7 hPa North 5.0 km/h 9.7 km/h 76% 0.0 mm 142 W/m2
08:39 4.7 °C 0.8 °C 1028.0 hPa North 6.1 km/h 9.7 km/h 76% 0.0 mm 152 W/m2
08:44 5.0 °C 0.8 °C 1028.0 hPa North 5.0 km/h 9.7 km/h 74% 0.0 mm 161 W/m2
08:49 5.1 °C 0.7 °C 1028.0 hPa NNW 8.7 km/h 11.1 km/h 73% 0.0 mm 169 W/m2
08:54 5.2 °C 0.8 °C 1028.0 hPa NNW 5.0 km/h 11.1 km/h 73% 0.0 mm 177 W/m2
08:59 5.4 °C 0.9 °C 1028.0 hPa NNW 6.1 km/h 12.2 km/h 73% 0.0 mm 184 W/m2
09:04 5.4 °C 0.9 °C 1028.3 hPa NNW 7.2 km/h 12.2 km/h 73% 0.0 mm 192 W/m2
09:09 5.6 °C 1.2 °C 1028.3 hPa North 8.7 km/h 13.4 km/h 73% 0.0 mm 201 W/m2
09:14 5.9 °C 1.4 °C 1028.0 hPa North 7.2 km/h 13.4 km/h 73% 0.0 mm 209 W/m2
09:19 6.3 °C 1.4 °C 1028.3 hPa NNW 8.7 km/h 12.2 km/h 71% 0.0 mm 217 W/m2
09:24 6.3 °C 1.2 °C 1028.3 hPa NNW 7.2 km/h 12.2 km/h 70% 0.0 mm 227 W/m2
09:29 6.5 °C 1.4 °C 1028.0 hPa North 9.7 km/h 14.8 km/h 70% 0.0 mm 237 W/m2
09:34 6.8 °C 1.7 °C 1028.3 hPa NNW 6.1 km/h 14.8 km/h 70% 0.0 mm 203 W/m2
09:39 7.2 °C 1.7 °C 1028.3 hPa NNW 12.2 km/h 17.2 km/h 68% 0.0 mm 132 W/m2
09:44 7.5 °C 1.8 °C 1028.3 hPa NNW 8.7 km/h 17.2 km/h 67% 0.0 mm 69 W/m2
09:49 7.8 °C 1.8 °C 1028.3 hPa NW 11.1 km/h 17.2 km/h 66% 0.0 mm 82 W/m2
09:54 8.1 °C 2.1 °C 1028.3 hPa NW 6.1 km/h 15.8 km/h 66% 0.0 mm 69 W/m2
10:00 8.7 °C 2.7 °C 1028.3 hPa NW 7.2 km/h 14.8 km/h 66% 0.0 mm 75 W/m2
10:05 8.8 °C 2.6 °C 1028.7 hPa WNW 7.2 km/h 12.2 km/h 65% 0.0 mm 64 W/m2
10:10 9.0 °C 2.6 °C 1028.7 hPa West 5.0 km/h 14.8 km/h 64% 0.0 mm 59 W/m2
10:15 9.0 °C 2.6 °C 1028.7 hPa West 5.0 km/h 15.8 km/h 64% 0.0 mm 56 W/m2
10:20 9.1 °C 2.7 °C 1028.7 hPa WSW 9.7 km/h 24.5 km/h 64% 0.0 mm 56 W/m2
10:25 8.9 °C 2.7 °C 1028.7 hPa WSW 5.0 km/h 24.5 km/h 65% 0.0 mm 54 W/m2
10:30 9.0 °C 2.3 °C 1028.7 hPa WSW 9.7 km/h 19.5 km/h 63% 0.0 mm 56 W/m2
10:36 8.9 °C 2.7 °C 1028.7 hPa WSW 9.7 km/h 25.6 km/h 65% 0.0 mm 57 W/m2
10:41 8.9 °C 2.7 °C 1028.7 hPa SW 8.7 km/h 25.6 km/h 65% 0.0 mm 79 W/m2
10:58 9.7 °C 3.2 °C 1029.0 hPa WSW 12.2 km/h 19.5 km/h 64% 0.0 mm 254 W/m2
11:03 9.2 °C 2.7 °C 1029.0 hPa WSW 14.8 km/h 24.5 km/h 64% 0.0 mm 268 W/m2
11:08 9.2 °C 2.9 °C 1029.0 hPa SW 19.5 km/h 25.6 km/h 65% 0.0 mm 279 W/m2
11:13 9.1 °C 2.9 °C 1029.0 hPa SW 11.1 km/h 25.6 km/h 65% 0.0 mm 281 W/m2
11:18 9.3 °C 2.8 °C 1029.0 hPa SW 11.1 km/h 25.6 km/h 64% 0.0 mm 282 W/m2
11:23 9.3 °C 2.8 °C 1029.0 hPa WSW 7.2 km/h 19.5 km/h 64% 0.0 mm 284 W/m2
11:28 9.6 °C 3.1 °C 1029.0 hPa WSW 6.1 km/h 19.5 km/h 64% 0.0 mm 323 W/m2
11:33 9.7 °C 3.4 °C 1028.7 hPa WSW 7.2 km/h 20.9 km/h 65% 0.0 mm 153 W/m2
11:38 9.5 °C 3.1 °C 1028.7 hPa WSW 17.2 km/h 20.9 km/h 64% 0.0 mm 267 W/m2
11:43 9.5 °C 3.1 °C 1028.7 hPa WSW 9.7 km/h 23.3 km/h 64% 0.0 mm 209 W/m2
11:48 9.9 °C 3.4 °C 1028.7 hPa WSW 15.8 km/h 23.3 km/h 64% 0.0 mm 289 W/m2
11:53 9.9 °C 3.2 °C 1028.7 hPa WSW 18.3 km/h 27.0 km/h 63% 0.0 mm 283 W/m2
11:58 9.7 °C 3.2 °C 1028.7 hPa WSW 18.3 km/h 27.0 km/h 64% 0.0 mm 269 W/m2
12:03 9.8 °C 3.3 °C 1028.7 hPa SW 8.7 km/h 21.9 km/h 64% 0.0 mm 270 W/m2
12:08 10.2 °C 3.5 °C 1028.7 hPa WSW 7.2 km/h 21.9 km/h 63% 0.0 mm 284 W/m2
12:13 10.3 °C 3.1 °C 1028.3 hPa West 12.2 km/h 17.2 km/h 61% 0.0 mm 280 W/m2
12:18 10.1 °C 3.2 °C 1028.3 hPa WSW 9.7 km/h 20.9 km/h 62% 0.0 mm 158 W/m2
12:23 9.8 °C 3.1 °C 1028.3 hPa WSW 9.7 km/h 20.9 km/h 63% 0.0 mm 230 W/m2
12:28 10.1 °C 2.9 °C 1028.3 hPa West 11.1 km/h 24.5 km/h 61% 0.0 mm 209 W/m2
12:33 10.3 °C 3.1 °C 1028.0 hPa West 14.8 km/h 24.5 km/h 61% 0.0 mm 191 W/m2
12:43 10.4 °C 3.2 °C 1028.0 hPa SW 12.2 km/h 23.3 km/h 61% 0.0 mm 153 W/m2
12:48 10.5 °C 3.6 °C 1028.0 hPa SW 12.2 km/h 23.3 km/h 62% 0.0 mm 136 W/m2
12:53 10.5 °C 3.3 °C 1027.7 hPa SW 14.8 km/h 21.9 km/h 61% 0.0 mm 117 W/m2
12:58 10.3 °C 3.3 °C 1027.7 hPa SW 11.1 km/h 23.3 km/h 62% 0.0 mm 101 W/m2
13:03 10.4 °C 3.2 °C 1027.7 hPa SW 11.1 km/h 23.3 km/h 61% 0.0 mm 94 W/m2
13:08 10.3 °C 2.9 °C 1027.7 hPa SW 12.2 km/h 19.5 km/h 60% 0.0 mm 94 W/m2
13:18 10.2 °C 2.8 °C 1027.7 hPa SW 8.7 km/h 19.5 km/h 60% 0.0 mm 85 W/m2
13:23 10.4 °C 3.0 °C 1027.7 hPa WSW 8.7 km/h 19.5 km/h 60% 0.0 mm 73 W/m2
13:28 10.5 °C 3.1 °C 1027.7 hPa SW 9.7 km/h 19.5 km/h 60% 0.0 mm 66 W/m2
13:33 10.7 °C 3.3 °C 1027.7 hPa SW 9.7 km/h 15.8 km/h 60% 0.0 mm 63 W/m2
13:38 11.0 °C 3.3 °C 1027.7 hPa SW 5.0 km/h 14.8 km/h 59% 0.0 mm 67 W/m2
13:43 11.0 °C 3.1 °C 1027.7 hPa WSW 5.0 km/h 13.4 km/h 58% 0.0 mm 84 W/m2
13:48 11.1 °C 2.9 °C 1027.7 hPa WSW 12.2 km/h 15.8 km/h 57% 0.0 mm 104 W/m2
13:53 10.7 °C 2.8 °C 1027.7 hPa WSW 11.1 km/h 15.8 km/h 58% 0.0 mm 113 W/m2
13:58 10.9 °C 3.2 °C 1027.7 hPa SW 9.7 km/h 15.8 km/h 59% 0.0 mm 103 W/m2
14:03 11.0 °C 2.8 °C 1027.7 hPa SW 8.7 km/h 15.8 km/h 57% 0.0 mm 85 W/m2
14:08 10.8 °C 2.9 °C 1027.3 hPa WSW 6.1 km/h 15.8 km/h 58% 0.0 mm 67 W/m2
14:13 11.0 °C 3.1 °C 1027.7 hPa WSW 7.2 km/h 14.8 km/h 58% 0.0 mm 71 W/m2
14:18 11.0 °C 3.1 °C 1027.7 hPa SW 9.7 km/h 14.8 km/h 58% 0.0 mm 74 W/m2
14:23 11.0 °C 3.1 °C 1027.7 hPa SW 8.7 km/h 14.8 km/h 58% 0.0 mm 80 W/m2
14:28 11.0 °C 2.8 °C 1027.7 hPa WSW 7.2 km/h 14.8 km/h 57% 0.0 mm 86 W/m2
14:33 11.0 °C 3.1 °C 1027.3 hPa WSW 7.2 km/h 14.8 km/h 58% 0.0 mm 109 W/m2
14:38 11.2 °C 3.0 °C 1027.7 hPa WSW 6.1 km/h 14.8 km/h 57% 0.0 mm 145 W/m2
14:44 10.9 °C 2.9 °C 1027.7 hPa SW 6.1 km/h 15.8 km/h 58% 0.0 mm 171 W/m2
14:49 11.3 °C 3.3 °C 1027.3 hPa SW 9.7 km/h 15.8 km/h 58% 0.0 mm 158 W/m2
14:54 11.5 °C 3.3 °C 1027.3 hPa SW 7.2 km/h 13.4 km/h 57% 0.0 mm 163 W/m2
14:59 11.4 °C 2.9 °C 1027.7 hPa SW 7.2 km/h 13.4 km/h 56% 0.0 mm 187 W/m2
15:04 11.9 °C 3.7 °C 1027.3 hPa SW 3.5 km/h 12.2 km/h 57% 0.0 mm 178 W/m2
15:09 11.5 °C 3.1 °C 1027.7 hPa SW 7.2 km/h 14.8 km/h 56% 0.0 mm 163 W/m2
15:14 11.6 °C 3.6 °C 1027.3 hPa SW 3.5 km/h 14.8 km/h 58% 0.0 mm 154 W/m2
15:19 12.3 °C 3.8 °C 1027.3 hPa SW 11.1 km/h 13.4 km/h 56% 0.0 mm 149 W/m2
15:24 11.4 °C 3.2 °C 1027.3 hPa West 5.0 km/h 13.4 km/h 57% 0.0 mm 144 W/m2
15:29 11.5 °C 3.5 °C 1027.7 hPa WSW 9.7 km/h 13.4 km/h 58% 0.0 mm 126 W/m2
15:34 11.3 °C 3.3 °C 1027.3 hPa WSW 3.5 km/h 13.4 km/h 58% 0.0 mm 123 W/m2
15:39 12.0 °C 3.5 °C 1027.3 hPa WNW 3.5 km/h 12.2 km/h 56% 0.0 mm 127 W/m2
15:44 11.9 °C 3.7 °C 1027.3 hPa West 6.1 km/h 11.1 km/h 57% 0.0 mm 128 W/m2
15:50 12.1 °C 3.8 °C 1027.7 hPa SW 3.5 km/h 9.7 km/h 57% 0.0 mm 117 W/m2
15:55 11.9 °C 3.7 °C 1027.7 hPa WSW 5.0 km/h 12.2 km/h 57% 0.0 mm 116 W/m2
16:00 11.5 °C 3.1 °C 1027.7 hPa WSW 3.5 km/h 12.2 km/h 56% 0.0 mm 108 W/m2
16:05 11.8 °C 3.8 °C 1027.7 hPa SW 6.1 km/h 11.1 km/h 58% 0.0 mm 94 W/m2
16:10 11.8 °C 3.6 °C 1027.7 hPa WSW 2.6 km/h 8.7 km/h 57% 0.0 mm 81 W/m2
16:16 11.4 °C 2.9 °C 1027.7 hPa SW 5.0 km/h 11.1 km/h 56% 0.0 mm 63 W/m2
16:26 11.6 °C 3.4 °C 1028.0 hPa WSW 5.0 km/h 8.7 km/h 57% 0.0 mm 45 W/m2
16:31 11.6 °C 3.1 °C 1027.7 hPa WSW 1.1 km/h 6.1 km/h 56% 0.0 mm 43 W/m2
16:36 11.8 °C 3.6 °C 1027.7 hPa West 3.5 km/h 6.1 km/h 57% 0.0 mm 39 W/m2
16:41 11.5 °C 3.1 °C 1027.7 hPa WSW 2.6 km/h 6.1 km/h 56% 0.0 mm 35 W/m2
16:46 11.6 °C 3.6 °C 1027.7 hPa WSW 2.6 km/h 6.1 km/h 58% 0.0 mm 32 W/m2
16:51 11.2 °C 3.0 °C 1027.7 hPa West 1.1 km/h 6.1 km/h 57% 0.0 mm 28 W/m2
16:56 10.9 °C 2.9 °C 1028.0 hPa West 1.1 km/h 6.1 km/h 58% 0.0 mm 21 W/m2
17:01 10.8 °C 3.1 °C 1027.7 hPa Calm   6.1 km/h 59% 0.0 mm 15 W/m2
17:06 10.4 °C 2.7 °C 1027.7 hPa WNW 2.6 km/h 5.0 km/h 59% 0.0 mm 8 W/m2
17:11 9.8 °C 2.9 °C 1028.0 hPa Calm   5.0 km/h 62% 0.0 mm 3 W/m2
17:16 9.1 °C 2.4 °C 1028.0 hPa WNW 1.1 km/h 3.5 km/h 63% 0.0 mm 0 W/m2
17:21 8.5 °C 2.3 °C 1027.7 hPa NW 1.1 km/h 2.6 km/h 65% 0.0 mm 0 W/m2
17:26 8.2 °C 2.2 °C 1027.7 hPa NW 1.1 km/h 2.6 km/h 66% 0.0 mm 0 W/m2
17:31 7.9 °C 2.4 °C 1028.0 hPa Calm   2.6 km/h 68% 0.0 mm 0 W/m2
17:36 7.7 °C 2.6 °C 1027.7 hPa NW 1.1 km/h 3.5 km/h 70% 0.0 mm 0 W/m2
17:41 7.4 °C 2.5 °C 1028.0 hPa Calm   3.5 km/h 71% 0.0 mm 0 W/m2
17:46 7.1 °C 2.2 °C 1028.0 hPa Calm   3.5 km/h 71% 0.0 mm 0 W/m2
17:51 7.0 °C 2.3 °C 1028.0 hPa NW 1.1 km/h 3.5 km/h 72% 0.0 mm 0 W/m2
17:52 7.0 °C 2.3 °C 1028.3 hPa NW 2.6 km/h 3.5 km/h 72% 0.0 mm 0 W/m2
17:57 6.7 °C 2.4 °C 1028.0 hPa NW 2.6 km/h 5.0 km/h 74% 0.0 mm 0 W/m2
18:02 6.5 °C 2.4 °C 1028.3 hPa NW 2.6 km/h 5.0 km/h 75% 0.0 mm 0 W/m2
18:07 6.2 °C 2.3 °C 1028.3 hPa NW 2.6 km/h 5.0 km/h 76% 0.0 mm 0 W/m2
18:12 6.0 °C 2.3 °C 1028.3 hPa NNW 1.1 km/h 3.5 km/h 77% 0.0 mm 0 W/m2
18:17 5.9 °C 2.6 °C 1028.3 hPa North 1.1 km/h 3.5 km/h 79% 0.0 mm 0 W/m2
18:22 5.7 °C 2.5 °C 1028.3 hPa North 1.1 km/h 3.5 km/h 80% 0.0 mm 0 W/m2
18:27 5.5 °C 2.5 °C 1028.7 hPa North 2.6 km/h 5.0 km/h 81% 0.0 mm 0 W/m2
18:32 5.5 °C 2.8 °C 1028.7 hPa North 2.6 km/h 5.0 km/h 83% 0.0 mm 0 W/m2
18:37 5.4 °C 2.7 °C 1028.7 hPa North 2.6 km/h 3.5 km/h 83% 0.0 mm 0 W/m2
18:42 5.4 °C 2.9 °C 1028.7 hPa North 3.5 km/h 5.0 km/h 84% 0.0 mm 0 W/m2
18:47 5.3 °C 2.8 °C 1028.7 hPa North 2.6 km/h 5.0 km/h 84% 0.0 mm 0 W/m2
18:52 5.0 °C 2.5 °C 1028.7 hPa North 2.6 km/h 5.0 km/h 84% 0.0 mm 0 W/m2
18:57 4.8 °C 2.5 °C 1028.7 hPa North 1.1 km/h 5.0 km/h 85% 0.0 mm 0 W/m2
19:02 4.5 °C 2.4 °C 1028.7 hPa North 2.6 km/h 5.0 km/h 86% 0.0 mm 0 W/m2
19:07 4.4 °C 2.3 °C 1028.7 hPa NNW 2.6 km/h 5.0 km/h 86% 0.0 mm 0 W/m2
19:12 4.2 °C 2.2 °C 1028.7 hPa NNW 2.6 km/h 5.0 km/h 87% 0.0 mm 0 W/m2
19:17 4.1 °C 2.1 °C 1028.7 hPa NNW 3.5 km/h 5.0 km/h 87% 0.0 mm 0 W/m2
19:22 4.0 °C 2.2 °C 1029.0 hPa NNW 2.6 km/h 5.0 km/h 88% 0.0 mm 0 W/m2
19:27 3.9 °C 2.3 °C 1029.0 hPa NNW 2.6 km/h 5.0 km/h 89% 0.0 mm 0 W/m2
19:32 3.8 °C 2.3 °C 1028.7 hPa NW 5.0 km/h 6.1 km/h 90% 0.0 mm 0 W/m2
19:37 3.8 °C 2.3 °C 1028.7 hPa NW 5.0 km/h 6.1 km/h 90% 0.0 mm 0 W/m2
19:42 3.9 °C 2.6 °C 1029.0 hPa NW 3.5 km/h 7.2 km/h 91% 0.0 mm 0 W/m2
19:47 3.8 °C 2.4 °C 1029.0 hPa NW 2.6 km/h 7.2 km/h 91% 0.0 mm 0 W/m2
19:52 3.7 °C 2.4 °C 1028.7 hPa NW 3.5 km/h 5.0 km/h 91% 0.0 mm 0 W/m2
19:57 3.7 °C 2.4 °C 1028.7 hPa NW 3.5 km/h 6.1 km/h 91% 0.0 mm 0 W/m2
20:07 3.5 °C 2.3 °C 1029.0 hPa NNW 3.5 km/h 7.2 km/h 92% 0.0 mm 0 W/m2
20:12 3.4 °C 2.2 °C 1029.0 hPa NNW 5.0 km/h 8.7 km/h 92% 0.0 mm 0 W/m2
20:17 3.4 °C 2.2 °C 1029.0 hPa NNW 6.1 km/h 8.7 km/h 92% 0.0 mm 0 W/m2
20:22 3.3 °C 2.1 °C 1029.0 hPa NNW 5.0 km/h 8.7 km/h 92% 0.0 mm 0 W/m2
20:27 3.3 °C 2.1 °C 1029.0 hPa NNW 6.1 km/h 7.2 km/h 92% 0.0 mm 0 W/m2
20:32 3.3 °C 2.3 °C 1029.0 hPa NNW 6.1 km/h 8.7 km/h 93% 0.0 mm 0 W/m2
20:37 3.4 °C 2.4 °C 1029.0 hPa NW 5.0 km/h 8.7 km/h 93% 0.0 mm 0 W/m2
20:42 3.5 °C 2.5 °C 1029.0 hPa NW 6.1 km/h 8.7 km/h 93% 0.0 mm 0 W/m2
20:47 3.6 °C 2.6 °C 1029.0 hPa NW 6.1 km/h 8.7 km/h 93% 0.0 mm 0 W/m2
20:52 3.7 °C 2.7 °C 1029.3 hPa NNW 5.0 km/h 8.7 km/h 93% 0.0 mm 0 W/m2
20:57 3.6 °C 2.6 °C 1029.0 hPa NNW 6.1 km/h 8.7 km/h 93% 0.0 mm 0 W/m2
21:02 3.4 °C 2.2 °C 1029.0 hPa NNW 5.0 km/h 8.7 km/h 92% 0.0 mm 0 W/m2
21:07 3.2 °C 2.1 °C 1029.0 hPa NNW 6.1 km/h 9.7 km/h 92% 0.0 mm 0 W/m2
21:12 3.2 °C 2.1 °C 1029.0 hPa NW 5.0 km/h 9.7 km/h 92% 0.0 mm 0 W/m2
21:17 3.1 °C 1.9 °C 1029.0 hPa NW 7.2 km/h 9.7 km/h 92% 0.0 mm 0 W/m2
21:22 3.0 °C 1.8 °C 1029.0 hPa NW 6.1 km/h 9.7 km/h 92% 0.0 mm 0 W/m2
21:27 2.9 °C 1.1 °C 1029.0 hPa NW 6.1 km/h 9.7 km/h 88% 0.0 mm 0 W/m2
21:32 2.8 °C 1.2 °C 1029.0 hPa NW 7.2 km/h 8.7 km/h 89% 0.0 mm 0 W/m2
21:37 2.8 °C 1.2 °C 1029.0 hPa NW 6.1 km/h 8.7 km/h 89% 0.0 mm 0 W/m2
21:42 2.6 °C 1.0 °C 1029.0 hPa NNW 3.5 km/h 8.7 km/h 89% 0.0 mm 0 W/m2
21:47 2.6 °C 1.0 °C 1029.0 hPa NNW 5.0 km/h 8.7 km/h 89% 0.0 mm 0 W/m2
21:52 2.6 °C 1.0 °C 1029.0 hPa NW 3.5 km/h 7.2 km/h 89% 0.0 mm 0 W/m2
21:57 2.6 °C 1.0 °C 1029.0 hPa NW 6.1 km/h 9.7 km/h 89% 0.0 mm 0 W/m2
22:02 2.5 °C 0.9 °C 1029.0 hPa NNW 6.1 km/h 9.7 km/h 89% 0.0 mm 0 W/m2
22:07 2.5 °C 0.9 °C 1029.0 hPa NNW 5.0 km/h 8.7 km/h 89% 0.0 mm 0 W/m2
22:12 2.4 °C 0.8 °C 1029.0 hPa NNW 5.0 km/h 8.7 km/h 89% 0.0 mm 0 W/m2
22:17 2.4 °C 0.8 °C 1029.0 hPa NNW 5.0 km/h 8.7 km/h 89% 0.0 mm 0 W/m2
22:22 2.3 °C 0.7 °C 1029.0 hPa NNW 3.5 km/h 8.7 km/h 89% 0.0 mm 0 W/m2
22:27 2.3 °C 0.7 °C 1029.3 hPa NNW 6.1 km/h 11.1 km/h 89% 0.0 mm 0 W/m2
22:32 2.4 °C 0.9 °C 1029.3 hPa NNW 6.1 km/h 11.1 km/h 90% 0.0 mm 0 W/m2
22:37 2.4 °C 0.9 °C 1029.0 hPa NNW 6.1 km/h 11.1 km/h 90% 0.0 mm 0 W/m2
22:42 2.4 °C 0.9 °C 1029.0 hPa NNW 5.0 km/h 11.1 km/h 90% 0.0 mm 0 W/m2
22:47 2.4 °C 0.9 °C 1029.0 hPa NNW 5.0 km/h 8.7 km/h 90% 0.0 mm 0 W/m2
22:52 2.4 °C 0.9 °C 1029.0 hPa NW 6.1 km/h 8.7 km/h 90% 0.0 mm 0 W/m2
22:57 2.4 °C 0.9 °C 1029.0 hPa NNW 7.2 km/h 9.7 km/h 90% 0.0 mm 0 W/m2
23:02 2.4 °C 0.9 °C 1029.0 hPa NNW 6.1 km/h 9.7 km/h 90% 0.0 mm 0 W/m2
23:07 2.4 °C 0.9 °C 1029.0 hPa NNW 5.0 km/h 9.7 km/h 90% 0.0 mm 0 W/m2
23:12 2.3 °C 0.8 °C 1029.0 hPa NNW 6.1 km/h 11.1 km/h 90% 0.0 mm 0 W/m2
23:17 2.2 °C 0.6 °C 1029.3 hPa NNW 6.1 km/h 11.1 km/h 89% 0.0 mm 0 W/m2
23:22 2.1 °C 0.5 °C 1029.0 hPa NNW 6.1 km/h 11.1 km/h 89% 0.0 mm 0 W/m2
23:27 2.1 °C 0.5 °C 1029.0 hPa NNW 7.2 km/h 11.1 km/h 89% 0.0 mm 0 W/m2
23:32 2.1 °C 0.5 °C 1029.0 hPa NNW 6.1 km/h 11.1 km/h 89% 0.0 mm 0 W/m2
23:37 2.1 °C 0.5 °C 1029.3 hPa NNW 5.0 km/h 8.7 km/h 89% 0.0 mm 0 W/m2
23:58 2.1 °C 0.6 °C 1029.0 hPa NNW 5.0 km/h 11.1 km/h 90% 0.0 mm 0 W/m2
Northern Hawkes Bay. New Zealand Historic Data
Compliments of Weather Underground - 2 mb